Time;durP1;ratioP1;P1;durP2;ratioP2;P2;SDS_P1;SDS_P2;PMS_P1;PMS_P2;Temp;Humidity;BMP_temperature;BMP_pressure;BME280_temperature;BME280_humidity;BME280_pressure;Samples;Min_cycle;Max_cycle;Signal;HPM_P1;HPM_P2
2023/05/31 00:01:40;;;;;;;8.90;4.43;;;;;;;23.53;49.67;100422.25;5069688;28;20045;-64
2023/05/31 00:04:08;;;;;;;7.45;4.45;;;;;;;23.53;49.77;100429.56;5070846;28;20413;-64
2023/05/31 00:06:40;;;;;;;8.70;4.47;;;;;;;23.52;49.63;100425.16;5070917;28;20523;-64
2023/05/31 00:09:08;;;;;;;7.57;4.72;;;;;;;23.51;49.70;100428.91;5069709;28;20048;-64
2023/05/31 00:11:36;;;;;;;6.18;4.18;;;;;;;23.50;49.74;100419.03;5070885;28;20447;-64
2023/05/31 00:14:04;;;;;;;7.05;4.30;;;;;;;23.49;49.89;100420.06;5070756;28;20052;-64
2023/05/31 00:16:32;;;;;;;5.45;3.83;;;;;;;23.49;49.68;100425.50;5070907;28;20401;-64
2023/05/31 00:19:08;;;;;;;8.02;4.50;;;;;;;23.48;49.60;100426.53;5070299;28;20045;-64
2023/05/31 00:21:36;;;;;;;8.98;4.68;;;;;;;23.46;49.86;100423.13;5072104;28;20044;-64
2023/05/31 00:24:05;;;;;;;7.00;4.57;;;;;;;23.46;49.62;100423.13;5074753;28;20056;-64
2023/05/31 00:26:33;;;;;;;10.15;4.40;;;;;;;23.44;49.55;100431.44;5074620;28;20565;-64
2023/05/31 00:29:01;;;;;;;6.43;4.28;;;;;;;23.45;49.48;100432.28;5074575;28;20136;-63
2023/05/31 00:31:30;;;;;;;7.47;4.50;;;;;;;23.42;49.48;100426.19;5074345;28;20048;-64
2023/05/31 00:33:58;;;;;;;7.32;4.25;;;;;;;23.41;49.50;100427.19;5074416;28;20601;-64
2023/05/31 00:36:28;;;;;;;6.40;3.80;;;;;;;23.40;49.47;100430.94;5074526;28;20048;-64
2023/05/31 00:38:56;;;;;;;6.18;3.80;;;;;;;23.39;49.38;100426.53;5074370;28;20055;-64
2023/05/31 00:41:25;;;;;;;6.90;4.03;;;;;;;23.38;49.59;100427.56;5074329;28;20044;-64
2023/05/31 00:43:53;;;;;;;7.82;4.00;;;;;;;23.38;49.74;100433.00;5073977;28;20484;-64
2023/05/31 00:46:27;;;;;;;6.00;3.97;;;;;;;23.37;49.51;100433.16;5074114;28;20044;-64
2023/05/31 00:48:56;;;;;;;6.82;4.20;;;;;;;23.36;49.40;100429.59;5074269;28;20098;-66
2023/05/31 00:51:31;;;;;;;6.88;4.40;;;;;;;23.35;49.56;100433.31;5074062;28;20045;-64
2023/05/31 00:54:00;;;;;;;10.57;4.38;;;;;;;23.34;49.28;100434.34;5073988;28;20596;-64
2023/05/31 00:56:29;;;;;;;6.78;4.15;;;;;;;23.33;49.22;100429.06;5074037;28;20059;-64
2023/05/31 00:59:01;;;;;;;7.53;4.47;;;;;;;23.33;49.11;100437.25;5073903;28;20048;-64
2023/05/31 01:01:32;;;;;;;7.40;3.97;;;;;;;23.32;49.18;100425.50;5073851;28;20549;-64
2023/05/31 01:04:02;;;;;;;7.13;3.97;;;;;;;23.31;49.23;100423.81;5073847;28;20048;-64
2023/05/31 01:06:34;;;;;;;7.13;4.07;;;;;;;23.30;49.38;100427.56;5072696;28;20048;-64
2023/05/31 01:09:05;;;;;;;6.55;4.22;;;;;;;23.30;49.18;100426.69;5073759;28;20135;-63
2023/05/31 01:11:55;;;;;;;6.95;4.10;;;;;;;23.28;49.17;100424.16;5073498;28;20048;-64
2023/05/31 01:14:33;;;;;;;6.97;3.80;;;;;;;23.28;49.13;100423.31;5073807;28;20053;-64
2023/05/31 01:17:10;;;;;;;6.88;3.92;;;;;;;23.27;49.08;100422.47;5073806;28;20044;-64
2023/05/31 01:19:47;;;;;;;6.35;3.88;;;;;;;23.26;49.02;100423.47;5073469;28;20413;-64
2023/05/31 01:22:28;;;;;;;7.35;4.40;;;;;;;23.25;49.04;100424.47;5073746;28;20416;-64
2023/05/31 01:25:13;;;;;;;7.53;4.10;;;;;;;23.25;48.99;100419.03;5073562;28;20139;-64
2023/05/31 01:27:44;;;;;;;6.82;4.00;;;;;;;23.24;49.13;100425.50;5073483;28;20049;-64
2023/05/31 01:30:14;;;;;;;7.55;4.55;;;;;;;23.24;49.05;100427.38;5073316;28;20048;-64
2023/05/31 01:32:43;;;;;;;9.50;3.90;;;;;;;23.23;49.26;100421.06;5072407;28;20052;-64
2023/05/31 01:35:12;;;;;;;7.70;3.80;;;;;;;23.23;48.92;100428.38;5073313;28;20084;-64
2023/05/31 01:37:40;;;;;;;6.38;3.78;;;;;;;23.22;48.88;100421.25;5073509;28;20044;-64
2023/05/31 01:40:09;;;;;;;7.15;4.10;;;;;;;23.21;48.88;100420.41;5073338;28;20147;-64
2023/05/31 01:42:38;;;;;;;7.20;3.80;;;;;;;23.21;48.81;100425.84;5073035;28;20049;-64
2023/05/31 01:45:10;;;;;;;7.05;4.03;;;;;;;23.20;48.82;100421.44;5073213;28;20143;-64
2023/05/31 01:47:41;;;;;;;7.95;4.40;;;;;;;23.20;48.80;100418.72;5073151;28;20513;-64
2023/05/31 01:50:13;;;;;;;8.45;3.70;;;;;;;23.19;48.94;100430.63;5073144;28;20090;-64
2023/05/31 01:52:46;;;;;;;6.00;3.90;;;;;;;23.19;48.95;100418.88;5072838;28;20048;-63
2023/05/31 01:55:14;;;;;;;6.28;3.70;;;;;;;23.18;48.72;100426.19;5072808;28;20087;-64
2023/05/31 01:57:44;;;;;;;7.55;4.07;;;;;;;23.17;48.48;100427.22;5073024;28;20044;-64
2023/05/31 02:00:15;;;;;;;7.43;3.78;;;;;;;23.18;48.56;100428.06;5072761;28;20132;-63
2023/05/31 02:02:43;;;;;;;7.22;4.00;;;;;;;23.16;48.49;100425.50;5072842;28;20128;-64
2023/05/31 02:05:15;;;;;;;6.65;3.75;;;;;;;23.14;48.68;100420.22;5072531;28;20155;-63
2023/05/31 02:07:45;;;;;;;7.60;3.67;;;;;;;23.14;48.49;100425.66;5071299;28;20052;-63
2023/05/31 02:10:13;;;;;;;6.22;3.60;;;;;;;23.14;48.46;100427.53;5072732;28;20045;-63
2023/05/31 02:12:42;;;;;;;6.55;3.67;;;;;;;23.13;48.50;100431.28;5072480;28;20060;-63
2023/05/31 02:15:12;;;;;;;7.18;3.60;;;;;;;23.12;48.55;100435.88;5072504;28;20049;-62
2023/05/31 02:17:45;;;;;;;5.70;3.45;;;;;;;23.11;48.35;100428.72;5072621;28;20132;-65
2023/05/31 02:20:17;;;;;;;6.10;3.42;;;;;;;23.10;48.39;100431.63;5072269;28;20045;-64
2023/05/31 02:22:46;;;;;;;7.70;4.20;;;;;;;23.09;48.40;100435.38;5072525;28;20068;-64
2023/05/31 02:25:15;;;;;;;6.30;3.67;;;;;;;23.08;48.19;100442.69;5072173;28;20060;-65
2023/05/31 02:27:44;;;;;;;7.05;3.47;;;;;;;23.08;48.37;100437.25;5072135;28;20045;-64
2023/05/31 02:30:16;;;;;;;7.50;3.70;;;;;;;23.07;47.99;100431.97;5072222;28;20076;-64
2023/05/31 02:32:45;;;;;;;5.50;3.67;;;;;;;23.06;48.01;100438.41;5071949;28;20052;-65
2023/05/31 02:35:14;;;;;;;6.35;3.63;;;;;;;23.05;48.12;100434.00;5072372;28;20052;-65
2023/05/31 02:37:42;;;;;;;6.95;3.78;;;;;;;23.03;48.12;100446.91;5071824;28;20489;-64
2023/05/31 02:40:12;;;;;;;6.72;3.53;;;;;;;23.04;48.00;100441.31;5072106;28;20045;-64
2023/05/31 02:42:42;;;;;;;6.82;3.78;;;;;;;23.03;48.13;100446.91;5071944;28;20045;-64
2023/05/31 02:45:12;;;;;;;5.30;3.47;;;;;;;23.04;48.02;100443.16;5071489;28;20088;-64
2023/05/31 02:47:41;;;;;;;6.10;3.47;;;;;;;23.02;48.04;100439.78;5071776;28;20127;-64
2023/05/31 02:50:11;;;;;;;6.15;3.53;;;;;;;23.01;47.79;100443.53;5071922;28;20055;-64
2023/05/31 02:52:40;;;;;;;6.25;3.50;;;;;;;23.01;47.86;100438.94;5071755;28;20078;-64
2023/05/31 02:55:09;;;;;;;5.72;3.42;;;;;;;23.01;47.92;100443.53;5071681;28;20493;-64
2023/05/31 02:57:37;;;;;;;5.85;3.63;;;;;;;23.01;47.93;100446.25;5071806;28;20409;-64
2023/05/31 03:00:10;;;;;;;6.25;3.58;;;;;;;22.99;47.77;100449.13;5071551;28;20055;-64
2023/05/31 03:02:42;;;;;;;8.13;3.85;;;;;;;22.98;47.94;100454.75;5071650;28;20055;-64
2023/05/31 03:05:11;;;;;;;7.55;4.28;;;;;;;22.97;47.67;100445.72;5071379;28;20113;-64
2023/05/31 03:07:42;;;;;;;9.20;4.50;;;;;;;22.97;47.71;100450.28;5071658;28;20051;-64
2023/05/31 03:10:19;;;;;;;8.52;4.38;;;;;;;22.95;47.64;100450.47;5071452;28;20096;-64
2023/05/31 03:12:47;;;;;;;8.00;4.13;;;;;;;22.95;47.64;100453.19;5071269;28;20128;-64
2023/05/31 03:15:15;;;;;;;8.07;4.05;;;;;;;22.94;47.53;100450.63;5071652;28;20068;-64
2023/05/31 03:17:43;;;;;;;7.60;4.07;;;;;;;22.94;47.55;100453.34;5071490;28;20079;-64
2023/05/31 03:20:13;;;;;;;7.97;4.00;;;;;;;22.93;47.46;100457.09;5071454;28;20055;-65
2023/05/31 03:22:42;;;;;;;6.57;3.55;;;;;;;22.92;47.49;100458.97;5071226;28;20045;-64
2023/05/31 03:25:10;;;;;;;7.88;4.22;;;;;;;22.91;47.44;100454.56;5071061;28;20408;-64
2023/05/31 03:27:39;;;;;;;6.88;3.55;;;;;;;22.92;47.53;100456.25;5071511;28;20426;-64
2023/05/31 03:30:08;;;;;;;7.03;3.80;;;;;;;22.91;47.62;100450.97;5071471;28;20052;-64
2023/05/31 03:32:37;;;;;;;7.07;3.72;;;;;;;22.91;47.61;100451.84;5071291;28;20049;-64
2023/05/31 03:35:06;;;;;;;7.85;4.20;;;;;;;22.91;47.52;100453.69;5071285;28;20059;-64
2023/05/31 03:37:35;;;;;;;7.90;3.75;;;;;;;22.91;47.45;100461.88;5070982;28;20049;-64
2023/05/31 03:40:04;;;;;;;6.22;3.80;;;;;;;22.90;47.69;100462.88;5071318;28;20084;-64
2023/05/31 03:42:32;;;;;;;6.47;3.70;;;;;;;22.89;47.37;100455.75;5070962;28;20048;-64
2023/05/31 03:45:01;;;;;;;6.63;4.00;;;;;;;22.89;47.69;100472.06;5071021;28;20052;-64
2023/05/31 03:47:32;;;;;;;5.65;3.67;;;;;;;22.88;47.42;100463.06;5071155;28;20048;-64
2023/05/31 03:50:00;;;;;;;7.75;4.13;;;;;;;22.88;47.64;100467.66;5070999;28;20060;-63
2023/05/31 03:52:29;;;;;;;7.32;3.42;;;;;;;22.88;47.75;100471.22;5070974;28;20071;-64
2023/05/31 03:54:59;;;;;;;7.95;4.00;;;;;;;22.89;47.66;100463.91;5069593;28;20141;-64
2023/05/31 03:57:27;;;;;;;6.50;3.70;;;;;;;22.87;47.47;100466.75;5074089;28;20054;-64
2023/05/31 03:59:56;;;;;;;6.32;3.40;;;;;;;22.88;47.63;100467.66;5075133;28;20811;-63
2023/05/31 04:02:24;;;;;;;7.55;3.67;;;;;;;22.87;47.69;100468.63;5074928;28;20102;-63
2023/05/31 04:04:53;;;;;;;7.88;3.95;;;;;;;22.88;47.54;100470.38;5074775;28;20052;-63
2023/05/31 04:07:22;;;;;;;9.18;4.25;;;;;;;22.87;47.60;100471.34;5074877;28;20075;-63
2023/05/31 04:09:51;;;;;;;5.97;3.60;;;;;;;22.88;47.47;100470.38;5075012;28;20140;-63
2023/05/31 04:12:20;;;;;;;7.13;3.28;;;;;;;22.87;47.58;100480.38;5072941;28;20058;-65
2023/05/31 04:14:48;;;;;;;8.43;3.60;;;;;;;22.87;47.57;100477.63;5074647;28;20143;-65
2023/05/31 04:17:20;;;;;;;7.03;3.33;;;;;;;22.88;47.39;100481.25;5074668;28;20131;-65
2023/05/31 04:19:48;;;;;;;8.38;3.60;;;;;;;22.86;47.50;100489.53;5074845;28;20045;-65
2023/05/31 04:22:16;;;;;;;6.97;3.63;;;;;;;22.87;47.32;100490.38;5074711;28;20044;-64
2023/05/31 04:24:45;;;;;;;6.05;3.60;;;;;;;22.85;47.35;100488.69;5074508;28;20419;-63
2023/05/31 04:27:18;;;;;;;9.05;3.55;;;;;;;22.85;47.43;100491.41;5074322;28;20060;-63
2023/05/31 04:29:50;;;;;;;6.72;3.67;;;;;;;22.88;47.53;100497.56;5074309;28;20048;-65
2023/05/31 04:32:21;;;;;;;6.70;3.43;;;;;;;22.86;47.28;100497.69;5074288;28;20084;-64
2023/05/31 04:34:52;;;;;;;7.68;3.45;;;;;;;22.86;47.41;100503.13;5074410;28;20281;-64
2023/05/31 04:37:20;;;;;;;6.65;3.40;;;;;;;22.85;47.30;100494.13;5074355;28;20114;-64
2023/05/31 04:39:49;;;;;;;6.13;3.55;;;;;;;22.85;47.20;100499.56;5074146;28;20084;-63
2023/05/31 04:42:17;;;;;;;7.03;3.55;;;;;;;22.87;47.29;100495.81;5074164;28;20056;-63
2023/05/31 04:44:45;;;;;;;7.18;3.80;;;;;;;22.85;47.37;100499.56;5073806;28;20048;-63
2023/05/31 04:47:15;;;;;;;7.05;3.53;;;;;;;22.85;47.33;100505.00;5073936;28;20128;-63
2023/05/31 04:49:43;;;;;;;8.10;4.18;;;;;;;22.85;47.27;100496.84;5073716;28;20051;-63
2023/05/31 04:52:18;;;;;;;5.50;3.70;;;;;;;22.85;47.43;100505.00;5073874;28;20122;-63
2023/05/31 04:54:46;;;;;;;7.97;3.83;;;;;;;22.86;47.20;100500.41;5073978;28;20079;-63
2023/05/31 04:57:15;;;;;;;5.03;3.40;;;;;;;22.87;47.41;100513.00;5073752;28;20059;-63
2023/05/31 04:59:43;;;;;;;6.47;3.70;;;;;;;22.87;47.21;100517.59;5073368;28;20045;-63
2023/05/31 05:02:13;;;;;;;6.70;3.88;;;;;;;22.86;47.23;100511.28;5073563;28;20493;-63
2023/05/31 05:04:42;;;;;;;10.52;3.17;;;;;;;22.85;47.00;100507.72;5072461;28;20047;-63
2023/05/31 05:07:12;;;;;;;7.13;3.60;;;;;;;22.85;47.30;100515.88;5073523;28;20056;-63
2023/05/31 05:09:41;;;;;;;7.97;3.38;;;;;;;22.85;46.97;100510.44;5072337;28;20559;-63
2023/05/31 05:12:10;;;;;;;6.50;3.50;;;;;;;22.83;47.15;100512.44;5073561;28;20074;-64
2023/05/31 05:14:39;;;;;;;7.70;3.47;;;;;;;22.83;46.97;100517.91;5073390;28;20603;-63
2023/05/31 05:17:13;;;;;;;7.05;3.53;;;;;;;22.82;47.07;100510.75;5073430;28;20076;-64
2023/05/31 05:19:53;;;;;;;13.02;4.50;;;;;;;22.82;47.03;100510.75;5101557;28;20061;-64
2023/05/31 05:22:36;;;;;;;12.57;4.60;;;;;;;22.82;46.96;100509.91;5070373;28;20052;-64
2023/05/31 05:25:13;;;;;;;12.77;4.38;;;;;;;22.83;47.11;100498.84;5072984;28;20045;-65
2023/05/31 05:27:57;;;;;;;14.93;4.82;;;;;;;22.82;47.03;100510.75;5072801;28;20053;-64
2023/05/31 05:30:53;;;;;;;15.07;5.25;;;;;;;22.82;47.16;100508.03;5050621;28;20119;-65
2023/05/31 05:33:36;;;;;;;10.60;5.00;;;;;;;22.84;47.01;100513.34;5050969;28;20143;-64
2023/05/31 05:36:21;;;;;;;15.07;4.43;;;;;;;22.84;47.14;100514.19;5045485;28;20393;-64
2023/05/31 05:39:12;;;;;;;12.80;4.97;;;;;;;22.86;47.15;100527.63;5068623;28;20060;-62
2023/05/31 05:42:02;;;;;;;10.27;4.75;;;;;;;22.85;47.08;100515.88;5071981;28;20045;-64
2023/05/31 05:44:37;;;;;;;8.50;4.00;;;;;;;22.85;47.00;100515.88;5072822;28;20052;-63
2023/05/31 05:47:14;;;;;;;10.80;4.32;;;;;;;22.87;47.12;100517.59;5071507;28;20213;-64
2023/05/31 05:49:53;;;;;;;9.25;3.95;;;;;;;22.87;47.36;100528.47;5072361;28;20052;-62
2023/05/31 05:52:28;;;;;;;14.32;4.40;;;;;;;22.88;46.96;100531.03;5029726;28;20454;-64
2023/05/31 05:55:11;;;;;;;9.98;4.15;;;;;;;22.88;47.07;100535.63;5027442;28;20098;-63
2023/05/31 05:57:47;;;;;;;10.00;4.72;;;;;;;22.88;47.19;100530.19;5030133;28;20124;-63
2023/05/31 06:00:24;;;;;;;15.30;3.78;;;;;;;22.89;47.11;100531.91;5029745;28;20128;-63
2023/05/31 06:03:08;;;;;;;11.32;4.47;;;;;;;22.89;47.34;100532.75;4987075;28;20111;-63
2023/05/31 06:05:52;;;;;;;9.70;4.13;;;;;;;22.89;47.33;100531.91;5013411;28;20111;-63
2023/05/31 06:08:34;;;;;;;11.63;4.38;;;;;;;22.89;47.32;100531.91;5029862;28;20046;-63
2023/05/31 06:11:18;;;;;;;11.63;4.32;;;;;;;22.89;47.31;100531.91;5028933;28;20049;-64
2023/05/31 06:13:57;;;;;;;8.18;3.92;;;;;;;22.89;47.23;100532.75;5030160;28;20061;-63
2023/05/31 06:16:44;;;;;;;9.48;4.50;;;;;;;22.91;47.41;100535.28;5023656;28;20111;-63
2023/05/31 06:19:30;;;;;;;9.82;3.78;;;;;;;22.90;47.39;100534.44;5012328;28;20060;-63
2023/05/31 06:22:12;;;;;;;8.50;4.07;;;;;;;22.91;47.34;100535.28;5029563;28;20053;-63
2023/05/31 06:24:51;;;;;;;8.02;4.00;;;;;;;22.93;47.37;100544.13;5067412;28;20139;-63
2023/05/31 06:27:27;;;;;;;8.25;4.07;;;;;;;22.92;47.47;100542.44;5071467;28;20051;-62
2023/05/31 06:30:01;;;;;;;9.38;4.10;;;;;;;22.93;47.31;100541.41;5102863;28;20055;-65
2023/05/31 06:32:41;;;;;;;7.80;4.03;;;;;;;22.93;47.36;100539.53;5071881;28;20051;-63
2023/05/31 06:35:24;;;;;;;9.07;4.00;;;;;;;22.94;47.43;100540.41;5071204;28;20428;-64
2023/05/31 06:38:07;;;;;;;8.82;4.15;;;;;;;22.95;47.46;100547.53;5058611;28;20095;-64
2023/05/31 06:40:50;;;;;;;10.63;4.00;;;;;;;22.96;47.51;100543.78;5069629;28;20040;-65
2023/05/31 06:43:28;;;;;;;6.93;3.80;;;;;;;22.96;47.43;100544.66;5071003;28;20044;-65
2023/05/31 06:46:02;;;;;;;8.18;4.00;;;;;;;22.96;47.51;100543.78;5062261;28;20057;-64
2023/05/31 06:48:33;;;;;;;7.60;3.72;;;;;;;22.97;47.47;100545.50;5071676;28;20310;-64
2023/05/31 06:51:19;;;;;;;6.50;3.78;;;;;;;22.98;47.45;100536.34;5068582;28;20076;-64
2023/05/31 06:54:00;;;;;;;5.90;3.65;;;;;;;22.99;47.40;100543.50;5071412;28;20076;-64
2023/05/31 06:56:39;;;;;;;7.78;3.85;;;;;;;23.00;47.38;100545.19;5101448;28;20071;-64
2023/05/31 06:59:22;;;;;;;9.48;4.13;;;;;;;23.01;47.43;100541.44;5051694;28;20048;-63
2023/05/31 07:02:15;;;;;;;6.63;3.67;;;;;;;23.00;47.44;100548.75;5071258;28;20076;-65
2023/05/31 07:04:53;;;;;;;9.05;3.58;;;;;;;23.01;47.48;100547.75;5071409;28;20064;-63
2023/05/31 07:07:26;;;;;;;7.95;3.65;;;;;;;23.01;47.50;100546.88;5070735;28;20131;-65
2023/05/31 07:10:07;;;;;;;7.78;3.47;;;;;;;23.02;47.68;100554.88;5070210;28;20044;-65
2023/05/31 07:12:54;;;;;;;6.93;4.10;;;;;;;23.03;47.53;100547.56;5069866;28;20425;-65
2023/05/31 07:15:25;;;;;;;6.60;3.97;;;;;;;23.04;47.65;100549.25;5071342;28;20386;-64
2023/05/31 07:17:56;;;;;;;8.43;3.58;;;;;;;23.05;47.45;100543.66;5070907;28;20494;-64
2023/05/31 07:20:43;;;;;;;7.85;4.00;;;;;;;23.05;47.52;100557.25;5070939;28;20127;-64
2023/05/31 07:23:30;;;;;;;5.50;3.17;;;;;;;23.07;47.33;100552.53;5067400;28;20063;-65
2023/05/31 07:26:16;;;;;;;8.55;3.85;;;;;;;23.07;47.29;100554.41;5067040;28;20540;-65
2023/05/31 07:29:02;;;;;;;6.68;3.72;;;;;;;23.08;47.09;100551.50;5070913;28;20494;-65
2023/05/31 07:31:48;;;;;;;8.32;3.92;;;;;;;23.09;46.97;100549.63;5069160;28;20063;-64
2023/05/31 07:34:37;;;;;;;7.25;3.80;;;;;;;23.11;46.97;100547.59;5070631;28;20162;-64
2023/05/31 07:37:49;;;;;;;5.95;3.45;;;;;;;23.11;46.89;100553.03;5070896;28;20494;-63
2023/05/31 07:40:32;;;;;;;;;;;;;;;23.12;46.84;100554.72;5071321;28;20076;-65
2023/05/31 07:43:11;;;;;;;6.47;3.38;;;;;;;23.13;46.60;100556.44;5070861;28;19942;-63
2023/05/31 07:45:56;;;;;;;7.22;3.50;;;;;;;23.13;46.66;100553.72;5042539;28;20090;-63
2023/05/31 07:48:46;;;;;;;7.10;3.47;;;;;;;23.14;46.61;100542.66;5052762;28;20095;-63
2023/05/31 07:51:33;;;;;;;5.75;2.95;;;;;;;23.15;46.61;100548.94;5051378;28;20052;-63
2023/05/31 07:54:15;;;;;;;7.40;3.63;;;;;;;23.16;46.39;100553.38;5070522;28;20084;-63
2023/05/31 07:57:01;;;;;;;6.32;3.22;;;;;;;23.17;46.35;100548.81;5056567;28;20064;-62
2023/05/31 07:59:43;;;;;;;5.75;3.25;;;;;;;23.18;46.26;100536.91;5070856;28;20049;-64
2023/05/31 08:02:30;;;;;;;;;;;;;;;23.18;46.29;100543.19;5068995;28;20056;-64
2023/05/31 08:05:13;;;;;;;5.82;3.20;;;;;;;23.19;46.13;100549.50;5066818;28;19920;-63
2023/05/31 08:08:02;;;;;;;7.97;3.53;;;;;;;23.20;46.16;100552.03;5064691;28;20140;-63
2023/05/31 08:10:47;;;;;;;6.47;3.28;;;;;;;23.21;45.79;100551.03;5068461;28;20059;-64
2023/05/31 08:13:36;;;;;;;5.85;3.40;;;;;;;23.21;46.01;100553.75;5070190;28;20072;-63
2023/05/31 08:16:17;;;;;;;7.32;3.60;;;;;;;23.23;45.93;100550.84;5070008;28;20052;-63
2023/05/31 08:19:08;;;;;;;5.13;3.08;;;;;;;23.24;46.08;100547.09;5070586;28;20057;-63
2023/05/31 08:21:47;;;;;;;7.22;3.40;;;;;;;23.25;45.99;100557.81;5066740;28;20055;-64
2023/05/31 08:24:37;;;;;;;6.32;3.20;;;;;;;23.25;46.00;100552.38;5070379;28;20049;-64
2023/05/31 08:27:17;;;;;;;6.68;3.42;;;;;;;23.27;45.96;100546.78;5070290;28;20052;-63
2023/05/31 08:30:00;;;;;;;7.00;3.33;;;;;;;23.27;45.78;100553.09;5067664;28;20053;-63
2023/05/31 08:32:56;;;;;;;7.93;3.53;;;;;;;23.29;45.50;100550.19;5034220;28;20485;-63
2023/05/31 08:35:41;;;;;;;6.53;3.50;;;;;;;23.29;45.62;100551.03;5057242;28;20214;-63
2023/05/31 08:38:22;;;;;;;5.75;3.20;;;;;;;23.29;45.70;100556.47;5070348;28;20063;-63
2023/05/31 08:41:11;;;;;;;6.05;3.15;;;;;;;23.31;45.68;100553.59;5069868;28;20049;-63
2023/05/31 08:44:07;;;;;;;7.85;3.22;;;;;;;23.33;45.67;100548.81;5073557;28;20170;-63
2023/05/31 08:46:58;;;;;;;;;;;;;;;23.33;45.74;100546.09;5073167;28;20060;-63
2023/05/31 08:49:33;;;;;;;7.68;3.10;;;;;;;23.33;45.59;100538.78;5073564;28;20335;-63
2023/05/31 08:52:11;;;;;;;8.48;3.70;;;;;;;23.33;45.44;100544.22;5073248;28;20056;-63
2023/05/31 08:54:47;;;;;;;6.35;3.20;;;;;;;23.35;45.32;100535.88;5073323;28;20048;-63
2023/05/31 08:57:21;;;;;;;7.97;3.50;;;;;;;23.36;45.21;100535.75;5054864;28;20474;-63
2023/05/31 08:59:51;;;;;;;6.63;3.50;;;;;;;23.36;45.26;100543.91;5073898;28;20072;-63
2023/05/31 09:02:22;;;;;;;6.45;3.25;;;;;;;23.38;45.34;100544.59;5073895;28;20048;-64
2023/05/31 09:04:51;;;;;;;7.55;3.78;;;;;;;23.40;45.29;100541.69;5073912;28;20055;-63
2023/05/31 09:07:21;;;;;;;5.75;3.55;;;;;;;23.39;45.19;100535.41;5073550;28;20143;-63
2023/05/31 09:09:50;;;;;;;6.63;3.38;;;;;;;23.41;45.23;100536.09;5073693;28;20409;-64
2023/05/31 09:12:18;;;;;;;7.38;3.78;;;;;;;23.42;45.00;100528.75;5073351;28;20064;-63
2023/05/31 09:14:47;;;;;;;5.57;3.22;;;;;;;23.43;45.13;100536.75;5073768;28;20079;-63
2023/05/31 09:17:18;;;;;;;6.43;3.60;;;;;;;23.45;45.02;100541.19;5073537;28;20052;-63
2023/05/31 09:19:52;;;;;;;7.20;3.58;;;;;;;23.45;45.07;100539.34;5073402;28;20417;-65
2023/05/31 09:22:22;;;;;;;6.93;3.35;;;;;;;23.47;45.00;100531.00;5073081;28;20505;-64
2023/05/31 09:24:56;;;;;;;8.20;3.72;;;;;;;23.48;45.15;100530.81;5073373;28;20409;-65
2023/05/31 09:27:26;;;;;;;6.72;3.58;;;;;;;23.49;45.03;100529.81;5073324;28;20063;-64
2023/05/31 09:29:55;;;;;;;7.80;3.53;;;;;;;23.50;44.97;100531.50;5073428;28;20067;-63
2023/05/31 09:32:23;;;;;;;6.70;3.40;;;;;;;23.52;44.80;100528.59;5072900;28;20051;-63
2023/05/31 09:34:55;;;;;;;6.53;3.17;;;;;;;23.53;44.82;100533.03;5073102;28;20066;-63
2023/05/31 09:37:30;;;;;;;7.50;3.95;;;;;;;23.54;44.72;100532.00;5073071;28;20052;-62
2023/05/31 09:40:00;;;;;;;7.40;3.65;;;;;;;23.56;44.80;100529.97;5073256;28;20093;-64
2023/05/31 09:42:29;;;;;;;6.15;3.35;;;;;;;23.57;44.81;100531.69;5073493;28;20049;-64
2023/05/31 09:45:01;;;;;;;6.50;3.30;;;;;;;23.58;44.88;100517.03;5072866;28;20052;-64
2023/05/31 09:47:32;;;;;;;5.75;3.40;;;;;;;23.59;44.94;100527.78;5072832;28;20040;-64
2023/05/31 09:50:02;;;;;;;8.32;3.80;;;;;;;23.61;44.81;100524.91;5072822;28;20489;-64
2023/05/31 09:52:31;;;;;;;7.03;3.60;;;;;;;23.62;44.96;100518.44;5072895;28;20122;-64
2023/05/31 09:55:06;;;;;;;5.82;3.53;;;;;;;23.64;44.85;100516.38;5071862;28;20214;-64
2023/05/31 09:57:40;;;;;;;7.45;3.33;;;;;;;23.65;44.91;100523.56;5072263;28;20079;-63
2023/05/31 10:00:16;;;;;;;5.85;3.65;;;;;;;23.66;44.85;100523.38;5072588;28;20089;-63
2023/05/31 10:02:45;;;;;;;8.25;3.58;;;;;;;23.69;44.77;100514.00;5072749;28;20052;-63
2023/05/31 10:05:16;;;;;;;6.13;3.42;;;;;;;23.70;44.89;100515.72;5072742;28;20053;-63
2023/05/31 10:07:50;;;;;;;5.75;3.30;;;;;;;23.72;45.00;100515.53;5072679;28;20139;-64
2023/05/31 10:10:20;;;;;;;6.68;3.42;;;;;;;23.74;44.87;100510.75;5072476;28;20052;-64
2023/05/31 10:12:51;;;;;;;7.32;3.90;;;;;;;23.76;44.57;100517.75;5072176;28;20056;-62
2023/05/31 10:15:24;;;;;;;6.07;3.65;;;;;;;23.77;44.76;100511.28;5072454;28;20419;-65
2023/05/31 10:17:59;;;;;;;6.63;3.67;;;;;;;23.81;44.82;100509.91;5072852;28;20150;-64
2023/05/31 10:20:40;;;;;;;6.22;3.75;;;;;;;23.82;44.77;100508.88;5072319;28;20056;-63
2023/05/31 10:23:16;;;;;;;5.95;3.50;;;;;;;23.83;44.74;100494.22;5072250;28;20052;-63
2023/05/31 10:25:56;;;;;;;5.72;3.63;;;;;;;23.87;44.96;100506.50;5072073;28;20050;-64
2023/05/31 10:28:29;;;;;;;6.03;3.63;;;;;;;23.90;44.80;100508.03;5072263;28;20135;-64
2023/05/31 10:30:59;;;;;;;6.95;4.00;;;;;;;23.93;44.74;100500.38;5072108;28;20102;-64
2023/05/31 10:33:30;;;;;;;8.65;3.78;;;;;;;23.96;44.66;100505.47;5071706;28;20085;-64
2023/05/31 10:36:00;;;;;;;5.88;3.65;;;;;;;23.97;44.72;100496.28;5072050;28;20405;-63
2023/05/31 10:38:41;;;;;;;5.18;3.55;;;;;;;24.02;44.57;100503.06;5072126;28;20044;-63
2023/05/31 10:41:16;;;;;;;5.70;3.45;;;;;;;24.04;44.70;100490.16;5071538;28;20049;-65
2023/05/31 10:43:59;;;;;;;6.18;3.80;;;;;;;24.08;44.66;100496.94;5071813;28;20047;-63
2023/05/31 10:46:29;;;;;;;7.03;3.90;;;;;;;24.11;44.46;100493.84;5071736;28;20045;-64
2023/05/31 10:49:01;;;;;;;6.63;3.70;;;;;;;24.14;44.42;100498.97;5071596;28;20049;-64
2023/05/31 10:51:47;;;;;;;7.30;3.90;;;;;;;24.17;44.35;100498.63;5071697;28;20140;-64
2023/05/31 10:54:21;;;;;;;6.60;3.55;;;;;;;24.20;44.08;100485.47;5064997;28;20117;-63
2023/05/31 10:56:57;;;;;;;6.80;3.67;;;;;;;24.25;44.23;100495.88;5071431;28;20421;-63
2023/05/31 10:59:27;;;;;;;6.63;3.90;;;;;;;24.29;43.98;100499.94;5071656;28;20040;-63
2023/05/31 11:01:57;;;;;;;7.97;3.92;;;;;;;24.33;43.52;100493.16;5071565;28;20049;-63
2023/05/31 11:04:27;;;;;;;6.57;3.80;;;;;;;24.36;43.65;100497.41;5071464;28;20135;-64
2023/05/31 11:07:11;;;;;;;7.85;3.80;;;;;;;24.38;43.70;100488.00;5071148;28;20491;-64
2023/05/31 11:09:41;;;;;;;7.97;3.95;;;;;;;24.42;43.69;100494.84;5071512;28;20075;-64
2023/05/31 11:12:13;;;;;;;7.75;3.92;;;;;;;24.47;43.39;100480.66;5071234;28;20230;-64
2023/05/31 11:14:42;;;;;;;6.53;4.10;;;;;;;24.49;43.48;100470.41;5071370;28;20417;-63
2023/05/31 11:17:14;;;;;;;6.53;3.45;;;;;;;24.51;43.19;100480.16;5071053;28;20045;-63
2023/05/31 11:19:44;;;;;;;8.55;4.35;;;;;;;24.56;42.85;100479.59;5070847;28;20081;-63
2023/05/31 11:22:15;;;;;;;6.57;3.80;;;;;;;24.61;42.71;100470.88;5071116;28;20048;-63
2023/05/31 11:24:51;;;;;;;5.57;3.63;;;;;;;24.62;43.17;100468.00;5071091;28;20489;-63
2023/05/31 11:27:21;;;;;;;6.07;3.85;;;;;;;24.68;42.77;100466.41;5071005;28;20144;-64
2023/05/31 11:30:00;;;;;;;8.35;4.03;;;;;;;24.70;42.89;100464.34;5070735;28;20054;-63
2023/05/31 11:32:57;;;;;;;5.72;3.63;;;;;;;24.72;42.76;100462.31;5070929;28;20044;-65
2023/05/31 11:35:28;;;;;;;7.43;3.88;;;;;;;24.73;42.47;100461.28;5070929;28;20511;-64
2023/05/31 11:38:05;;;;;;;7.90;3.92;;;;;;;24.78;42.37;100461.56;5071079;28;20046;-64
2023/05/31 11:40:36;;;;;;;7.53;4.10;;;;;;;24.84;41.95;100466.34;5070825;28;20049;-64
2023/05/31 11:43:07;;;;;;;6.93;4.13;;;;;;;24.87;41.99;100465.97;5071283;28;20080;-64
2023/05/31 11:45:44;;;;;;;6.88;3.75;;;;;;;24.91;41.84;100456.41;5070615;28;20052;-64
2023/05/31 11:48:25;;;;;;;6.68;3.47;;;;;;;24.94;41.95;100447.84;5070738;28;20045;-64
2023/05/31 11:51:02;;;;;;;7.32;3.95;;;;;;;24.97;41.72;100446.63;5070369;28;20060;-64
2023/05/31 11:53:31;;;;;;;6.70;4.22;;;;;;;25.01;41.71;100457.03;5070990;28;20115;-64
2023/05/31 11:56:00;;;;;;;6.72;4.00;;;;;;;25.02;41.38;100447.84;5070468;28;20096;-64
2023/05/31 11:58:31;;;;;;;7.82;3.92;;;;;;;25.03;41.41;100460.44;5070584;28;20041;-63